Time;durP1;ratioP1;P1;durP2;ratioP2;P2;SDS_P1;SDS_P2;PMS_P1;PMS_P2;Temp;Humidity;BMP_temperature;BMP_pressure;BME280_temperature;BME280_humidity;BME280_pressure;Samples;Min_cycle;Max_cycle;Signal;HPM_P1;HPM_P2
2021/10/25 00:00:19;;;;;;;23.70;16.50;;;;;;;2.36;87.82;101924.07;85921;1317;80777;-63
2021/10/25 00:02:43;;;;;;;31.60;18.70;;;;;;;2.37;87.94;101927.08;85935;1313;99049;-63
2021/10/25 00:04:51;;;;;;;30.90;17.00;;;;;;;2.37;87.93;101923.66;85950;1314;88214;-65
2021/10/25 00:06:59;;;;;;;26.80;17.20;;;;;;;2.37;87.88;101918.16;85897;1313;94520;-65
2021/10/25 00:09:07;;;;;;;25.10;17.30;;;;;;;2.40;87.92;101917.78;85930;1313;79464;-65
2021/10/25 00:11:14;;;;;;;26.00;16.30;;;;;;;2.42;87.85;101915.02;85912;1317;81928;-66
2021/10/25 00:13:25;;;;;;;26.80;16.60;;;;;;;2.43;87.85;101915.83;85936;1313;100172;-66
2021/10/25 00:15:33;;;;;;;27.80;16.60;;;;;;;2.45;87.84;101916.79;85908;1318;88588;-63
2021/10/25 00:17:40;;;;;;;28.80;17.10;;;;;;;2.43;87.98;101913.53;85922;1320;93293;-63
2021/10/25 00:19:51;;;;;;;29.10;17.20;;;;;;;2.43;87.85;101911.19;85733;1316;80051;-65
2021/10/25 00:21:59;;;;;;;26.20;16.20;;;;;;;2.41;87.87;101911.54;85795;1313;80786;-66
2021/10/25 00:24:08;;;;;;;25.20;15.30;;;;;;;2.41;87.67;101917.77;85831;1314;99732;-64
2021/10/25 00:26:15;;;;;;;25.30;16.00;;;;;;;2.41;87.82;101918.09;85787;1317;88792;-63
2021/10/25 00:28:23;;;;;;;23.80;15.30;;;;;;;2.43;87.70;101916.58;85889;1312;94709;-63
2021/10/25 00:30:33;;;;;;;25.90;15.90;;;;;;;2.44;87.78;101911.33;85905;1319;77773;-63
2021/10/25 00:32:44;;;;;;;26.10;16.50;;;;;;;2.42;87.72;101914.86;85945;1317;82477;-63
2021/10/25 00:34:51;;;;;;;29.60;18.80;;;;;;;2.42;87.86;101909.81;85931;1314;97358;-66
2021/10/25 00:37:02;;;;;;;22.80;16.30;;;;;;;2.43;88.12;101909.95;85929;1314;88227;-66
2021/10/25 00:39:10;;;;;;;23.90;15.80;;;;;;;2.43;87.94;101909.42;85918;1312;94547;-68
2021/10/25 00:41:18;;;;;;;28.20;16.10;;;;;;;2.43;87.80;101905.73;85918;1319;80067;-68
2021/10/25 00:43:27;;;;;;;24.30;15.40;;;;;;;2.40;87.73;101904.96;85930;1313;81351;-68
2021/10/25 00:45:34;;;;;;;29.40;15.90;;;;;;;2.39;87.69;101899.02;85910;1319;97722;-68
2021/10/25 00:47:42;;;;;;;26.60;16.40;;;;;;;2.39;87.72;101898.63;85938;1313;88572;-68
2021/10/25 00:49:49;;;;;;;25.10;16.80;;;;;;;2.40;87.73;101897.37;85939;1314;95642;-63
2021/10/25 00:51:57;;;;;;;27.30;16.10;;;;;;;2.37;87.63;101896.45;85914;1312;79301;-63
2021/10/25 00:54:05;;;;;;;27.50;17.20;;;;;;;2.38;87.63;101895.90;85924;1313;81487;-65
2021/10/25 00:56:18;;;;;;;29.80;17.40;;;;;;;2.40;87.84;101894.67;85919;1313;99470;-69
2021/10/25 00:58:25;;;;;;;25.80;16.90;;;;;;;2.42;87.88;101889.60;85920;1314;88335;-69
2021/10/25 01:00:34;;;;;;;25.00;15.90;;;;;;;2.39;87.86;101887.83;85907;1314;94677;-64
2021/10/25 01:02:44;;;;;;;25.10;16.00;;;;;;;2.39;87.75;101881.95;85914;1314;78393;-64
2021/10/25 01:04:52;;;;;;;27.20;16.70;;;;;;;2.39;87.83;101877.46;85929;1317;79854;-64
2021/10/25 01:07:04;;;;;;;28.20;16.80;;;;;;;2.41;87.70;101875.27;85949;1317;97569;-63
2021/10/25 01:09:12;;;;;;;27.80;17.70;;;;;;;2.39;87.82;101880.86;85922;1315;87455;-68
2021/10/25 01:11:23;;;;;;;32.30;19.00;;;;;;;2.39;87.81;101885.34;85918;1314;93660;-68
2021/10/25 01:13:30;;;;;;;25.80;16.40;;;;;;;2.41;87.76;101876.15;85925;1316;81068;-69
2021/10/25 01:15:38;;;;;;;24.50;15.90;;;;;;;2.43;87.78;101874.08;85944;1313;82482;-69
2021/10/25 01:17:46;;;;;;;25.70;16.80;;;;;;;2.41;87.90;101869.75;85954;1313;99934;-68
2021/10/25 01:19:57;;;;;;;27.80;16.20;;;;;;;2.40;87.84;101868.92;85941;1313;88931;-64
2021/10/25 01:22:04;;;;;;;28.00;17.10;;;;;;;2.40;87.76;101867.27;85928;1313;94474;-65
2021/10/25 01:24:12;;;;;;;25.90;16.70;;;;;;;2.37;87.82;101864.08;85902;1313;80472;-64
2021/10/25 01:26:23;;;;;;;26.60;15.50;;;;;;;2.37;87.71;101862.89;85937;1314;80724;-64
2021/10/25 01:28:31;;;;;;;25.80;16.90;;;;;;;2.37;87.78;101864.33;85786;1316;99186;-64
2021/10/25 01:30:38;;;;;;;25.40;15.80;;;;;;;2.35;87.66;101861.08;85780;1313;87626;-64
2021/10/25 01:32:47;;;;;;;26.40;15.60;;;;;;;2.34;88.04;101856.67;85915;1314;94078;-63
2021/10/25 01:34:55;;;;;;;26.30;15.70;;;;;;;2.37;87.89;101852.71;85885;1315;79976;-64
2021/10/25 01:37:03;;;;;;;26.70;16.30;;;;;;;2.42;88.12;101851.56;85934;1313;82947;-64
2021/10/25 01:39:11;;;;;;;27.40;16.30;;;;;;;2.40;87.87;101848.63;85700;1315;98575;-68
2021/10/25 01:41:18;;;;;;;24.40;16.10;;;;;;;2.38;87.79;101849.81;85923;1320;87558;-69
2021/10/25 01:43:29;;;;;;;24.40;15.50;;;;;;;2.35;87.84;101845.08;85922;1316;95129;-69
2021/10/25 01:45:39;;;;;;;29.00;16.50;;;;;;;2.36;88.03;101842.87;85924;1313;78096;-69
2021/10/25 01:47:47;;;;;;;25.60;15.30;;;;;;;2.37;87.85;101841.56;85744;1320;82708;-68
2021/10/25 01:49:54;;;;;;;25.90;16.00;;;;;;;2.35;87.68;101833.00;85772;1316;97882;-68
2021/10/25 01:52:06;;;;;;;28.70;15.50;;;;;;;2.31;87.70;101832.73;85911;1313;87375;-69
2021/10/25 01:54:14;;;;;;;23.80;15.20;;;;;;;2.30;87.63;101838.66;85918;1312;92354;-68
2021/10/25 01:56:23;;;;;;;25.20;15.00;;;;;;;2.29;87.71;101836.38;85886;1319;77238;-69
2021/10/25 01:58:31;;;;;;;27.20;14.80;;;;;;;2.30;87.71;101836.16;85938;1313;82089;-69
2021/10/25 02:00:42;;;;;;;28.00;16.50;;;;;;;2.30;87.69;101832.95;85887;1313;99754;-64
2021/10/25 02:02:49;;;;;;;26.10;15.50;;;;;;;2.31;87.63;101829.17;85749;1316;88548;-64
2021/10/25 02:04:58;;;;;;;24.50;14.70;;;;;;;2.30;87.69;101826.95;85700;1313;93309;-68
2021/10/25 02:07:05;;;;;;;27.50;15.60;;;;;;;2.27;87.67;101826.59;85909;1320;79547;-69
2021/10/25 02:09:16;;;;;;;27.80;16.30;;;;;;;2.28;87.79;101824.02;85905;1313;81325;-69
2021/10/25 02:11:26;;;;;;;30.00;17.90;;;;;;;2.32;87.64;101820.34;85916;1320;99511;-69
2021/10/25 02:13:34;;;;;;;24.40;15.50;;;;;;;2.37;87.79;101818.27;85934;1316;87316;-69
2021/10/25 02:15:42;;;;;;;27.50;15.90;;;;;;;2.37;87.57;101819.85;85922;1319;93678;-68
2021/10/25 02:17:49;;;;;;;25.20;15.40;;;;;;;2.35;87.60;101811.50;85914;1313;78718;-68
2021/10/25 02:19:57;;;;;;;27.50;16.40;;;;;;;2.32;87.53;101811.34;85924;1316;81712;-63
2021/10/25 02:22:04;;;;;;;26.60;15.80;;;;;;;2.30;87.70;101808.25;85936;1317;98727;-63
2021/10/25 02:24:14;;;;;;;25.10;16.30;;;;;;;2.29;87.59;101808.29;85937;1316;88000;-64
2021/10/25 02:26:25;;;;;;;25.30;14.90;;;;;;;2.29;87.73;101802.10;85923;1317;94460;-63
2021/10/25 02:28:34;;;;;;;28.60;16.00;;;;;;;2.28;87.70;101801.44;85900;1319;80486;-63
2021/10/25 02:30:42;;;;;;;27.00;15.60;;;;;;;2.27;87.65;101797.44;85934;1313;81909;-68
2021/10/25 02:32:50;;;;;;;25.60;17.60;;;;;;;2.24;87.72;101797.82;85913;1317;100248;-68
2021/10/25 02:34:57;;;;;;;30.20;17.30;;;;;;;2.25;87.76;101792.95;85934;1313;88190;-63
2021/10/25 02:37:05;;;;;;;28.00;16.30;;;;;;;2.24;87.59;101796.02;85936;1313;93492;-63
2021/10/25 02:39:16;;;;;;;33.00;17.60;;;;;;;2.22;87.58;101795.48;85875;1314;78921;-69
2021/10/25 02:41:28;;;;;;;32.00;18.70;;;;;;;2.20;87.70;101795.42;85930;1313;80882;-69
2021/10/25 02:43:36;;;;;;;29.90;17.80;;;;;;;2.19;87.54;101793.75;85928;1314;99883;-68
2021/10/25 02:45:44;;;;;;;31.60;19.50;;;;;;;2.16;87.76;101791.27;85933;1316;87243;-69
2021/10/25 02:47:51;;;;;;;33.00;19.70;;;;;;;2.18;87.75;101787.36;85914;1313;94555;-68
2021/10/25 02:49:59;;;;;;;29.70;18.90;;;;;;;2.16;87.64;101784.84;85931;1312;80174;-68
2021/10/25 02:52:07;;;;;;;32.70;19.20;;;;;;;2.13;87.76;101787.21;85916;1317;82649;-69
2021/10/25 02:54:15;;;;;;;32.10;19.50;;;;;;;2.10;87.88;101782.56;85942;1314;96737;-68
2021/10/25 02:56:25;;;;;;;29.60;18.50;;;;;;;2.10;87.72;101782.44;85922;1313;87352;-68
2021/10/25 02:58:35;;;;;;;28.50;18.00;;;;;;;2.10;87.66;101785.44;85892;1316;94686;-68
2021/10/25 03:00:46;;;;;;;30.20;18.10;;;;;;;2.12;87.76;101782.80;85923;1317;77869;-68
2021/10/25 03:02:53;;;;;;;31.00;18.60;;;;;;;2.12;87.86;101778.39;85792;1314;81714;-68
2021/10/25 03:05:01;;;;;;;29.50;17.70;;;;;;;2.10;87.69;101780.09;85763;1314;99508;-68
2021/10/25 03:07:08;;;;;;;25.70;17.10;;;;;;;2.09;87.66;101778.01;85911;1316;89437;-68
2021/10/25 03:09:16;;;;;;;30.30;18.80;;;;;;;2.09;87.68;101781.20;85689;1317;95018;-63
2021/10/25 03:11:23;;;;;;;23.30;15.60;;;;;;;2.11;87.61;101777.36;85930;1314;79729;-63
2021/10/25 03:13:30;;;;;;;28.50;18.40;;;;;;;2.11;87.66;101777.02;85930;1313;81757;-63
2021/10/25 03:15:38;;;;;;;27.10;16.80;;;;;;;2.11;87.59;101773.31;85918;1313;97944;-68
2021/10/25 03:17:46;;;;;;;30.30;17.60;;;;;;;2.09;87.49;101777.52;85938;1313;87668;-67
2021/10/25 03:19:53;;;;;;;29.10;17.10;;;;;;;2.07;87.53;101775.69;85934;1314;92864;-67
2021/10/25 03:22:01;;;;;;;29.20;17.50;;;;;;;2.05;87.48;101779.42;85931;1316;79804;-67
2021/10/25 03:24:09;;;;;;;26.10;16.90;;;;;;;2.02;87.52;101782.25;85935;1314;80902;-67
2021/10/25 03:26:20;;;;;;;26.60;17.50;;;;;;;2.00;87.67;101780.41;85949;1313;99131;-67
2021/10/25 03:28:28;;;;;;;28.10;17.10;;;;;;;2.01;87.60;101776.29;85929;1313;88356;-68
2021/10/25 03:30:36;;;;;;;26.50;16.80;;;;;;;1.99;87.54;101776.59;85914;1313;94221;-67
2021/10/25 03:32:43;;;;;;;27.70;17.80;;;;;;;1.94;87.41;101779.02;85925;1313;80462;-67
2021/10/25 03:34:51;;;;;;;31.40;18.90;;;;;;;1.93;87.55;101777.69;85762;1313;83422;-67
2021/10/25 03:36:59;;;;;;;26.60;16.40;;;;;;;1.97;87.63;101776.55;85917;1320;98151;-69
2021/10/25 03:39:07;;;;;;;27.50;16.50;;;;;;;1.97;87.58;101772.63;85928;1313;87131;-67
2021/10/25 03:41:18;;;;;;;28.30;16.90;;;;;;;1.98;87.60;101768.16;85841;1319;94536;-68
2021/10/25 03:43:30;;;;;;;28.00;17.40;;;;;;;1.97;87.58;101772.09;85841;1314;78580;-68
2021/10/25 03:45:42;;;;;;;28.60;17.40;;;;;;;1.98;87.57;101769.95;85896;1313;82120;-67
2021/10/25 03:47:58;;;;;;;28.80;17.30;;;;;;;1.97;87.54;101769.27;85908;1313;99136;-68
2021/10/25 03:50:10;;;;;;;28.40;17.50;;;;;;;1.96;87.56;101763.61;85904;1313;88658;-69
2021/10/25 03:52:24;;;;;;;26.00;16.50;;;;;;;1.97;87.36;101763.95;85954;1314;92207;-69
2021/10/25 03:54:36;;;;;;;;;;;;;;;1.94;87.42;101761.10;85946;1313;78061;-69
2021/10/25 03:57:06;;;;;;;30.00;18.00;;;;;;;1.93;87.41;101759.05;85918;1313;82112;-68
2021/10/25 03:59:33;;;;;;;28.80;18.50;;;;;;;1.93;87.39;101757.63;85909;1314;99360;-63
2021/10/25 04:04:36;;;;;;;26.60;17.00;;;;;;;1.90;87.51;101749.43;85697;1315;93463;-67
2021/10/25 04:26:30;;;;;;;25.60;15.30;;;;;;;1.92;87.52;101720.73;85501;1318;87030;-63
2021/10/25 04:28:39;;;;;;;27.20;16.30;;;;;;;1.92;87.41;101713.64;85898;1313;94216;-64
2021/10/25 04:30:53;;;;;;;27.10;16.70;;;;;;;1.90;87.43;101710.23;85720;1316;81770;-63
2021/10/25 04:33:01;;;;;;;28.20;17.10;;;;;;;1.89;87.37;101708.32;85919;1313;81936;-63
2021/10/25 04:35:11;;;;;;;26.80;16.70;;;;;;;1.89;87.33;101703.91;85899;1312;97403;-63
2021/10/25 04:37:18;;;;;;;27.50;16.90;;;;;;;1.87;87.26;101704.59;85927;1313;88211;-63
2021/10/25 04:39:26;;;;;;;27.10;16.90;;;;;;;1.82;87.32;101702.56;85912;1313;94854;-67
2021/10/25 04:41:33;;;;;;;27.40;17.60;;;;;;;1.81;87.26;101701.23;85903;1313;78071;-67
2021/10/25 04:43:40;;;;;;;28.40;19.00;;;;;;;1.80;87.33;101695.98;85924;1314;79589;-67
2021/10/25 04:45:48;;;;;;;27.80;16.90;;;;;;;1.78;87.25;101695.17;85889;1320;99804;-68
2021/10/25 04:47:59;;;;;;;25.30;17.10;;;;;;;1.76;87.25;101694.75;85929;1313;88356;-68
2021/10/25 04:50:09;;;;;;;24.50;17.50;;;;;;;1.77;87.33;101693.83;85912;1316;94960;-63
2021/10/25 04:52:16;;;;;;;25.40;15.20;;;;;;;1.79;87.29;101695.83;85927;1312;78061;-63
2021/10/25 04:54:27;;;;;;;25.80;16.20;;;;;;;1.75;87.30;101693.44;85435;1316;669272;-63
2021/10/25 04:56:34;;;;;;;29.70;18.10;;;;;;;1.75;87.17;101693.45;85821;1314;99810;-64
2021/10/25 04:58:42;;;;;;;28.30;17.70;;;;;;;1.75;87.22;101695.89;85918;1313;89079;-64
2021/10/25 05:00:49;;;;;;;28.20;16.90;;;;;;;1.75;87.29;101692.54;85780;1318;95021;-65
2021/10/25 05:03:01;;;;;;;29.40;17.60;;;;;;;1.75;87.22;101689.20;85780;1319;79292;-64
2021/10/25 05:05:11;;;;;;;26.60;17.00;;;;;;;1.77;87.21;101689.77;85800;1319;82616;-69
2021/10/25 05:07:19;;;;;;;28.50;16.50;;;;;;;1.80;87.16;101688.12;85788;1316;98426;-70
2021/10/25 05:09:27;;;;;;;28.70;18.10;;;;;;;1.83;87.18;101686.39;85740;1320;89041;-70
2021/10/25 05:11:35;;;;;;;29.20;18.10;;;;;;;1.81;87.09;101690.36;85775;1313;94400;-69
2021/10/25 05:13:45;;;;;;;30.10;17.80;;;;;;;1.78;87.05;101685.03;85791;1313;78935;-70
2021/10/25 05:15:53;;;;;;;27.50;17.10;;;;;;;1.80;87.04;101682.09;85815;1317;82303;-64
2021/10/25 05:18:01;;;;;;;28.00;15.90;;;;;;;1.84;87.07;101679.22;85759;1315;98266;-64
2021/10/25 05:20:11;;;;;;;28.80;17.50;;;;;;;1.85;86.98;101680.00;85797;1317;87564;-64
2021/10/25 05:22:19;;;;;;;23.50;14.80;;;;;;;1.87;87.05;101679.35;85785;1314;94748;-64
2021/10/25 05:24:26;;;;;;;28.50;16.50;;;;;;;1.85;86.97;101676.63;85794;1316;79471;-69
2021/10/25 05:26:35;;;;;;;27.20;17.30;;;;;;;1.83;86.98;101673.02;85793;1316;80650;-69
2021/10/25 05:28:42;;;;;;;26.20;16.60;;;;;;;1.85;86.83;101678.23;85758;1316;99365;-69
2021/10/25 05:30:49;;;;;;;27.90;17.60;;;;;;;1.85;86.93;101676.79;85784;1316;85641;-69
2021/10/25 05:33:00;;;;;;;27.50;16.60;;;;;;;1.89;86.79;101679.05;85790;1320;94505;-69
2021/10/25 05:35:09;;;;;;;27.60;16.90;;;;;;;1.90;86.84;101685.15;85767;1320;80578;-64
2021/10/25 05:37:16;;;;;;;28.50;15.90;;;;;;;1.91;86.78;101684.38;85813;1315;80699;-64
2021/10/25 05:39:24;;;;;;;26.70;16.80;;;;;;;1.91;86.76;101682.95;85796;1314;98247;-63
2021/10/25 05:41:31;;;;;;;30.60;17.20;;;;;;;1.92;86.67;101680.03;85801;1314;88512;-64
2021/10/25 05:43:40;;;;;;;27.20;17.10;;;;;;;1.94;86.77;101677.41;85797;1313;94624;-64
2021/10/25 05:45:47;;;;;;;24.40;16.00;;;;;;;1.98;86.80;101675.42;85725;1314;78560;-69
2021/10/25 05:47:58;;;;;;;26.90;16.70;;;;;;;1.99;86.58;101674.08;85758;1306;81069;-69
2021/10/25 05:50:07;;;;;;;27.20;16.60;;;;;;;2.00;86.66;101670.48;85788;1321;97961;-64
2021/10/25 05:52:14;;;;;;;25.90;16.90;;;;;;;2.01;86.50;101665.42;85731;1314;86893;-64
2021/10/25 05:54:22;;;;;;;27.30;17.20;;;;;;;2.06;86.51;101669.85;85742;1313;94392;-68
2021/10/25 05:56:30;;;;;;;23.30;16.60;;;;;;;2.11;86.58;101664.40;85719;1316;79416;-69
2021/10/25 05:58:37;;;;;;;27.90;16.80;;;;;;;2.16;86.57;101664.23;85785;1313;82716;-70
2021/10/25 06:00:49;;;;;;;28.10;17.70;;;;;;;2.20;86.45;101659.80;85884;1314;98365;-70
2021/10/25 06:02:59;;;;;;;29.20;17.10;;;;;;;2.26;86.44;101659.59;85908;1314;87135;-70
2021/10/25 06:05:09;;;;;;;26.80;15.90;;;;;;;2.29;86.29;101659.58;85901;1313;94717;-71
2021/10/25 06:07:19;;;;;;;27.00;17.00;;;;;;;2.33;86.37;101662.65;85918;1316;77578;-70
2021/10/25 06:09:28;;;;;;;28.30;17.30;;;;;;;2.38;86.27;101664.58;85919;1313;81229;-70
2021/10/25 06:11:36;;;;;;;72.50;44.40;;;;;;;2.47;86.30;101662.72;85917;1312;97554;-70
2021/10/25 06:13:44;;;;;;;41.00;25.20;;;;;;;2.57;86.44;101660.81;85930;1320;87848;-70
2021/10/25 06:15:58;;;;;;;28.00;16.50;;;;;;;2.62;86.11;101663.95;85770;1319;93268;-69
2021/10/25 06:18:10;;;;;;;27.90;17.10;;;;;;;2.68;86.05;101657.19;85892;1318;78734;-69
2021/10/25 06:20:18;;;;;;;27.00;16.20;;;;;;;2.75;86.00;101655.75;85911;1319;83189;-69
2021/10/25 06:22:31;;;;;;;24.90;16.50;;;;;;;2.85;86.20;101655.54;85803;1313;99057;-69
2021/10/25 06:24:42;;;;;;;26.20;16.00;;;;;;;2.91;85.94;101659.25;85794;1315;87873;-69
2021/10/25 06:26:49;;;;;;;23.70;16.50;;;;;;;3.00;86.02;101658.55;85900;1313;93190;-73
2021/10/25 06:28:57;;;;;;;25.80;17.00;;;;;;;3.25;85.51;101657.84;85881;1313;77591;-68
2021/10/25 06:31:09;;;;;;;23.40;16.00;;;;;;;3.42;85.47;101655.86;85925;1314;81281;-64
2021/10/25 06:33:19;;;;;;;28.10;17.70;;;;;;;3.52;85.56;101660.20;85858;1317;98442;-64
2021/10/25 06:35:27;;;;;;;27.30;18.10;;;;;;;3.75;85.94;101662.98;85876;1317;86475;-70
2021/10/25 06:37:49;;;;;;;31.70;17.10;;;;;;;4.30;87.16;101662.16;85796;1316;95308;-69
2021/10/25 06:39:57;;;;;;;26.20;17.00;;;;;;;5.34;86.15;101655.02;85904;1314;80852;-64
2021/10/25 06:42:06;;;;;;;26.40;17.00;;;;;;;6.52;85.85;101649.48;85903;1313;82054;-64
2021/10/25 06:44:13;;;;;;;22.50;15.30;;;;;;;7.72;85.90;101641.84;85885;1313;98370;-64
2021/10/25 06:46:21;;;;;;;23.50;16.90;;;;;;;8.87;84.67;101638.05;85907;1314;86726;-64
2021/10/25 06:48:32;;;;;;;24.00;16.70;;;;;;;9.87;83.04;101631.20;85906;1317;93845;-64
2021/10/25 06:50:43;;;;;;;21.30;14.80;;;;;;;10.43;81.12;101631.49;85899;1313;79058;-63
2021/10/25 06:52:52;;;;;;;23.10;16.20;;;;;;;10.65;79.92;101635.83;85933;1316;82531;-64
2021/10/25 06:55:00;;;;;;;23.50;15.70;;;;;;;10.78;77.96;101629.88;85935;1317;97573;-69
2021/10/25 06:57:08;;;;;;;20.40;15.30;;;;;;;10.82;77.28;101624.52;85927;1317;87335;-67
2021/10/25 06:59:15;;;;;;;21.50;15.30;;;;;;;11.04;76.19;101622.75;85866;1313;94664;-67
2021/10/25 07:01:26;;;;;;;19.20;15.00;;;;;;;11.48;74.89;101625.58;85917;1313;79526;-68
2021/10/25 07:03:34;;;;;;;20.40;14.50;;;;;;;12.03;74.64;101622.74;85741;1319;81965;-67
2021/10/25 07:05:42;;;;;;;21.30;13.70;;;;;;;12.19;71.64;101623.83;85825;1316;97827;-63
2021/10/25 07:07:50;;;;;;;20.70;14.70;;;;;;;12.48;69.65;101626.04;85903;1314;88683;-63
2021/10/25 07:10:02;;;;;;;19.10;13.50;;;;;;;12.68;71.27;101617.42;85892;1313;94136;-67
2021/10/25 07:12:13;;;;;;;19.00;13.70;;;;;;;12.77;68.83;101618.14;85904;1312;80476;-66
2021/10/25 07:14:26;;;;;;;21.50;13.80;;;;;;;12.86;69.45;101615.85;85912;1316;83203;-63
2021/10/25 07:16:40;;;;;;;20.10;14.10;;;;;;;13.23;66.34;101611.76;85864;1312;97386;-63
2021/10/25 07:19:01;;;;;;;17.80;13.20;;;;;;;13.49;66.21;101606.94;85855;1317;89115;-63
2021/10/25 07:26:43;;;;;;;17.80;13.60;;;;;;;14.90;59.63;101601.60;85507;1325;83941;-66
2021/10/25 08:01:13;;;;;;;15.40;12.70;;;;;;;18.31;49.04;101600.83;85909;1313;79900;-63
2021/10/25 08:03:41;;;;;;;18.30;12.00;;;;;;;17.16;49.87;101600.86;85905;1317;82581;-63
2021/10/25 08:05:55;;;;;;;15.20;12.00;;;;;;;16.48;50.27;101600.40;85943;1312;99024;-65
2021/10/25 08:08:14;;;;;;;16.40;12.30;;;;;;;16.11;50.46;101601.77;85911;1317;87387;-65
2021/10/25 08:10:24;;;;;;;14.10;12.20;;;;;;;15.44;50.99;101597.19;85891;1317;94269;-66
2021/10/25 08:12:34;;;;;;;15.20;12.50;;;;;;;14.91;51.84;101595.53;85920;1320;79546;-62
2021/10/25 08:14:46;;;;;;;16.70;12.60;;;;;;;14.12;51.61;101592.68;85889;1313;82243;-66
2021/10/25 08:16:55;;;;;;;21.20;13.00;;;;;;;13.51;52.39;101592.73;85921;1320;99010;-66
2021/10/25 08:19:10;;;;;;;17.70;11.70;;;;;;;13.12;53.62;101597.19;85915;1313;88307;-65
2021/10/25 08:21:22;;;;;;;15.90;11.20;;;;;;;12.70;54.31;101591.86;85885;1313;94661;-64
2021/10/25 08:23:30;;;;;;;16.00;11.80;;;;;;;12.54;54.02;101590.59;85902;1320;78174;-63
2021/10/25 08:25:38;;;;;;;16.20;11.80;;;;;;;12.76;55.04;101582.25;85960;1313;82890;-63
2021/10/25 08:27:46;;;;;;;14.70;11.50;;;;;;;12.97;55.17;101581.00;85912;1313;99161;-63
2021/10/25 08:29:57;;;;;;;15.10;11.60;;;;;;;12.53;54.25;101582.95;85927;1320;86828;-63
2021/10/25 08:32:17;;;;;;;15.30;11.10;;;;;;;12.17;54.78;101587.42;85921;1313;95969;-64
2021/10/25 08:34:35;;;;;;;15.40;11.00;;;;;;;12.18;55.76;101584.38;85910;1316;80818;-65
2021/10/25 08:41:39;;;;;;;18.30;12.50;;;;;;;12.38;55.38;101581.94;85898;1313;89090;-63
2021/10/25 08:43:52;;;;;;;13.60;10.50;;;;;;;13.36;55.86;101581.77;85920;1316;95527;-65
2021/10/25 08:46:04;;;;;;;14.80;10.00;;;;;;;14.48;55.10;101580.02;85935;1313;78946;-66
2021/10/25 08:48:15;;;;;;;12.70;10.10;;;;;;;15.34;53.79;101575.92;85944;1307;81432;-65
2021/10/25 08:50:29;;;;;;;12.40;9.50;;;;;;;16.08;52.86;101579.02;85921;1316;98912;-65
2021/10/25 08:52:37;;;;;;;14.00;10.20;;;;;;;16.78;52.04;101573.37;85913;1317;88470;-65
2021/10/25 08:54:45;;;;;;;15.20;10.00;;;;;;;17.28;50.25;101565.88;85893;1313;94539;-65
2021/10/25 08:56:52;;;;;;;16.00;9.50;;;;;;;17.62;50.86;101562.95;85941;1313;80030;-65
2021/10/25 08:59:02;;;;;;;12.30;9.80;;;;;;;17.85;49.97;101558.98;85913;1316;81597;-64
2021/10/25 09:01:25;;;;;;;12.10;9.90;;;;;;;18.19;49.09;101560.77;85911;1313;98527;-68
2021/10/25 09:03:34;;;;;;;17.70;9.90;;;;;;;18.09;47.39;101554.04;85912;1313;88206;-64
2021/10/25 09:05:56;;;;;;;12.20;9.60;;;;;;;18.57;48.97;101553.60;85860;1313;94994;-65
2021/10/25 09:08:07;;;;;;;13.10;10.20;;;;;;;19.09;48.38;101554.41;85920;1313;79225;-70
2021/10/25 09:10:23;;;;;;;13.10;9.70;;;;;;;19.00;48.23;101551.38;85911;1313;80554;-65
2021/10/25 09:12:36;;;;;;;12.60;9.60;;;;;;;19.29;47.26;101553.73;85912;1316;99083;-62
2021/10/25 09:14:45;;;;;;;12.40;10.00;;;;;;;19.10;46.79;101553.27;85898;1314;87748;-65
2021/10/25 09:16:59;;;;;;;16.50;10.70;;;;;;;18.97;47.39;101552.81;85915;1319;94330;-65
2021/10/25 09:19:18;;;;;;;13.10;10.40;;;;;;;18.70;45.00;101545.45;85898;1313;77644;-66
2021/10/25 09:23:52;;;;;;;11.40;9.40;;;;;;;18.78;45.85;101538.59;85633;1306;97499;-64
2021/10/25 09:26:04;;;;;;;12.10;9.60;;;;;;;18.87;45.65;101534.15;85607;1322;88336;-61
2021/10/25 09:28:26;;;;;;;13.70;10.30;;;;;;;18.75;46.11;101530.98;85583;1309;94910;-64
2021/10/25 09:30:40;;;;;;;13.70;10.70;;;;;;;19.03;45.44;101530.34;85543;1307;79784;-65
2021/10/25 09:32:49;;;;;;;13.50;9.90;;;;;;;19.32;45.24;101530.66;85555;1318;81452;-66
2021/10/25 09:35:04;;;;;;;14.80;10.80;;;;;;;18.95;43.63;101523.96;85781;1309;98391;-62
2021/10/25 09:37:16;;;;;;;11.90;10.10;;;;;;;18.71;44.04;101525.90;85357;1325;88703;-62
2021/10/25 09:39:27;;;;;;;14.70;9.80;;;;;;;18.65;43.50;101519.81;85438;1309;93819;-65
2021/10/25 09:41:51;;;;;;;11.80;9.00;;;;;;;18.75;43.94;101518.02;85773;1306;82906;-62
2021/10/25 09:50:48;;;;;;;14.80;10.20;;;;;;;18.04;43.92;101508.17;84910;1307;79704;-64
2021/10/25 09:52:57;;;;;;;14.50;10.20;;;;;;;17.80;43.68;101505.11;84716;1334;82032;-63
2021/10/25 09:55:10;;;;;;;12.30;9.60;;;;;;;17.46;43.64;101502.23;84708;1330;95577;-64
2021/10/25 09:57:24;;;;;;;13.90;9.80;;;;;;;16.73;44.70;101497.83;84708;1328;88835;-64
2021/10/25 09:59:49;;;;;;;15.10;10.60;;;;;;;16.27;45.41;101500.59;84667;1332;94301;-62
2021/10/25 10:02:02;;;;;;;15.20;11.10;;;;;;;15.63;45.83;101499.09;85503;1314;252422;-63
2021/10/25 10:04:13;;;;;;;13.70;11.00;;;;;;;15.00;46.30;101496.38;85682;1319;82489;-63
2021/10/25 10:06:21;;;;;;;13.80;10.30;;;;;;;14.38;47.19;101494.94;85724;1320;95005;-64
2021/10/25 10:08:29;;;;;;;14.60;10.90;;;;;;;14.01;47.71;101494.55;85703;1316;88963;-64
2021/10/25 10:10:37;;;;;;;15.80;10.80;;;;;;;13.59;48.05;101489.75;85670;1317;94386;-64
2021/10/25 10:12:49;;;;;;;15.20;11.40;;;;;;;13.06;48.85;101488.95;85705;1317;78570;-62
2021/10/25 10:14:59;;;;;;;17.30;10.80;;;;;;;12.88;49.49;101492.14;85730;1314;81564;-63
2021/10/25 10:17:07;;;;;;;15.30;10.60;;;;;;;12.53;50.11;101490.63;85720;1316;97629;-61
2021/10/25 10:19:23;;;;;;;21.50;10.30;;;;;;;12.42;50.58;101487.59;85972;1295;87006;-63
2021/10/25 10:21:34;;;;;;;15.60;10.50;;;;;;;12.02;50.91;101492.10;85923;1313;94190;-62
2021/10/25 10:23:50;;;;;;;12.70;10.30;;;;;;;11.90;51.52;101490.83;86928;1299;79100;-63
2021/10/25 10:26:01;;;;;;;16.10;10.90;;;;;;;11.73;52.12;101491.21;85993;1317;82495;-64
2021/10/25 10:28:15;;;;;;;16.70;10.70;;;;;;;11.60;52.42;101487.98;86085;1300;98156;-65
2021/10/25 10:30:23;;;;;;;18.80;11.00;;;;;;;11.59;52.67;101484.36;85911;1313;88987;-63
2021/10/25 10:32:33;;;;;;;15.40;9.90;;;;;;;11.40;52.94;101477.63;86026;1300;95362;-65
2021/10/25 10:35:07;;;;;;;15.40;9.70;;;;;;;11.35;53.26;101474.34;85957;1317;79546;-67
2021/10/25 10:37:24;;;;;;;15.50;10.70;;;;;;;11.31;53.53;101469.67;86083;1300;82092;-61
2021/10/25 10:39:33;;;;;;;15.50;9.90;;;;;;;11.26;53.80;101468.92;86070;1300;98518;-63
2021/10/25 10:41:53;;;;;;;12.70;8.60;;;;;;;11.24;54.18;101465.13;85912;1319;90761;-66
2021/10/25 10:44:08;;;;;;;14.60;8.30;;;;;;;11.21;54.41;101462.53;85861;1304;93167;-63
2021/10/25 10:46:17;;;;;;;14.70;10.00;;;;;;;11.06;54.70;101455.38;85957;1319;79159;-62
2021/10/25 10:48:37;;;;;;;15.20;9.80;;;;;;;11.17;55.03;101452.70;85998;1312;82683;-67
2021/10/25 10:50:55;;;;;;;22.20;16.40;;;;;;;11.20;55.40;101444.09;86121;1301;97230;-62
2021/10/25 10:53:10;;;;;;;17.40;11.70;;;;;;;11.23;55.41;101441.56;85780;1315;87339;-64
2021/10/25 10:55:25;;;;;;;15.50;10.70;;;;;;;11.19;55.14;101436.45;85847;1317;93666;-64
2021/10/25 11:00:22;;;;;;;13.20;9.10;;;;;;;11.10;55.31;101428.80;85919;1317;81367;-60
2021/10/25 11:02:29;;;;;;;17.80;9.20;;;;;;;11.14;55.76;101421.35;85984;1317;96775;-60
2021/10/25 11:04:37;;;;;;;14.60;9.30;;;;;;;11.16;55.62;101420.39;86012;1319;89161;-60
2021/10/25 11:06:58;;;;;;;14.30;9.20;;;;;;;11.11;55.74;101418.60;86068;1314;93724;-62
2021/10/25 11:09:13;;;;;;;15.70;8.80;;;;;;;11.04;55.65;101416.67;85991;1319;78869;-62
2021/10/25 11:11:25;;;;;;;13.30;8.30;;;;;;;11.02;55.69;101416.70;85936;1300;81206;-61
2021/10/25 11:13:36;;;;;;;15.80;9.10;;;;;;;11.00;55.48;101414.57;86029;1301;96667;-59